Hauptseite
METAR-TAF:

METAR-TAF

Flughäfen :

Aizawl, Indien

Breite: 23-50-18N, Länge: 92-37-13E, Höhe: 405 m

Beobachtung

Neuester Wetterbericht von vor 12 Stunden und 28 Minuten, um 10:30 UTC
Wind 4 kt aus West/Südwest
Temperatur 25°C
Luftfeuchtigkeit 61%
Luftdruck 1012 hPa
Sichtweite: 3000 m
Leicht bewölkt in der Höhe von 1800 ft
trockener Dunst

METAR: VELP 161030Z 25004KT 3000 HZ FEW018 25/17 Q1012 NOSIG

Zeit: 04:28 (22:58 UTC)


TAF: fehlend

Wetterbeobachtungen und Prognosen von mehr als 4000 Flughäfen (METAR und TAF Bericht).

Die verfügbaren Stationen werden durch gelbe und rote Markierungen auf der Karte dargestellt.

Führen Sie die Maus auf sie, um den Namen der Station zu sehen.

Darauf klicken, um die Beobachtung von Wetterbeobachtungen und Prognosen zu sehen.

Um die Karte zu ändern : klicken Sie auf den grünen Tasten mit einem schwarzen Kreuz Zum Vergrößern, auf den grünen Button mit einem Gedankenstrich zu verkleinern, oder auf die grünen Pfeile für benachbarte Karten.


METAR-TAF: